Sanuki Maru — JG5378 — position and weather

sailwx.info

Track history (hours):
 
Tides and Currents Weather Stations Pressure Air Temp Water Temp Dewpoint Dewpoint Depression Visibility Wind Speed Wind Dir Waves Ship Positions

Sanuki Maru

Last reported at 2018-Jun-20 21:23 UTC. Time now 2018-Jun-21 04:49 UTC.
Position N 34°43' E 134°35'.

Length 36 m; draft 3.8 m.

Type: Tug. MMSI: 431100769.

Date/timePositionNaut miles runAvg speedWind from/ knotsBaromVisibWave heightAir tempDewpointWater temp
2018-Jun-20 21:23N 34°43' E 134°35'410.5
2018-Jun-20 20:58N 34°42' E 134°40'510.4
2018-Jun-20 20:30N 34°41' E 134°46'510.5
2018-Jun-20 20:01N 34°38' E 134°51'611.5
2018-Jun-20 19:30N 34°38' E 134°58'612.5
2018-Jun-20 19:00N 34°36' E 135°05'611.7
2018-Jun-20 18:30N 34°34' E 135°12'611.9
2018-Jun-20 18:00N 34°33' E 135°19'4 3.3
2018-Jun-20 16:41N 34°31' E 135°24'0 0.0
2018-Jun-20 16:29N 34°31' E 135°24'0 0.0
2018-Jun-20 14:53N 34°31' E 135°24'0 0.0
2018-Jun-20 12:35N 34°31' E 135°24'0 0.0
2018-Jun-20 12:29N 34°31' E 135°24'0 0.0
2018-Jun-19 23:51N 34°31' E 135°24'4 9.1
2018-Jun-19 23:23N 34°35' E 135°24'2 4.7
2018-Jun-19 22:58N 34°37' E 135°25'1 3.0
2018-Jun-19 22:30N 34°36' E 135°23'2 4.8
2018-Jun-19 22:00N 34°34' E 135°23'3 4.7
2018-Jun-19 21:19N 34°31' E 135°24'0 0.0
2018-Jun-19 20:49N 34°31' E 135°24'0 0.0
2018-Jun-19 20:01N 34°31' E 135°24'0 0.0
2018-Jun-19 19:37N 34°31' E 135°24'0 0.0
2018-Jun-19 13:37N 34°31' E 135°24'0 0.0
2018-Jun-19 13:25N 34°31' E 135°24'0 0.0
2018-Jun-19 12:55N 34°31' E 135°24'0 0.0
2018-Jun-19 12:19N 34°31' E 135°24'0 0.0
2018-Jun-19 11:55N 34°31' E 135°24'0 0.0
2018-Jun-19 10:49N 34°31' E 135°24'0 0.0
2018-Jun-19 10:07N 34°31' E 135°24'0 0.0
2018-Jun-19 09:43N 34°31' E 135°24'0 0.0
2018-Jun-19 07:55N 34°31' E 135°24'0 0.0
2018-Jun-19 07:30N 34°31' E 135°24'510.1
2018-Jun-19 06:59N 34°36' E 135°23'3 7.1
2018-Jun-19 06:30N 34°39' E 135°24'2 3.2
2018-Jun-19 06:00N 34°38' E 135°23'2 4.2
2018-Jun-19 05:31N 34°36' E 135°24'0 0.0
2018-Jun-19 05:00N 34°36' E 135°24'0 0.0
2018-Jun-19 04:31N 34°36' E 135°24'0 0.0
2018-Jun-19 04:01N 34°36' E 135°24'0 0.0
2018-Jun-19 03:30N 34°36' E 135°24'0 0.0
2018-Jun-19 02:59N 34°36' E 135°24'0 0.0
2018-Jun-19 02:30N 34°36' E 135°24'0 0.0
2018-Jun-19 02:00N 34°36' E 135°24'0 0.0
2018-Jun-19 01:28N 34°36' E 135°24'0 0.0
2018-Jun-19 00:55N 34°36' E 135°24'1 1.3
2018-Jun-19 00:29N 34°37' E 135°24'3 5.5
2018-Jun-19 00:00N 34°39' E 135°25'0 0.3
2018-Jun-18 23:29N 34°39' E 135°25'4 7.5
2018-Jun-18 23:00N 34°36' E 135°23'510.6
2018-Jun-18 22:30N 34°31' E 135°24'0 0.1
2018-Jun-18 21:20N 34°31' E 135°24'0 0.0
2018-Jun-18 20:56N 34°31' E 135°24'0 0.0
2018-Jun-18 20:20N 34°31' E 135°24'0 0.0
2018-Jun-18 19:56N 34°31' E 135°24'0 0.0
2018-Jun-18 19:27N 34°31' E 135°24'0 0.0
2018-Jun-18 18:57N 34°31' E 135°24'0 0.0
2018-Jun-18 17:27N 34°31' E 135°24'0 0.0
2018-Jun-18 14:50N 34°31' E 135°24'0 0.0
2018-Jun-18 14:20N 34°31' E 135°24'0 0.0
2018-Jun-18 13:56N 34°31' E 135°24'0 0.0
2018-Jun-18 13:26N 34°31' E 135°24'0 0.0
2018-Jun-18 12:50N 34°31' E 135°24'0 0.0
2018-Jun-18 12:14N 34°31' E 135°24'0 0.0
2018-Jun-18 11:50N 34°31' E 135°24'0 0.0
2018-Jun-18 11:08N 34°31' E 135°24'0 0.0
2018-Jun-18 10:56N 34°31' E 135°24'0 0.0
2018-Jun-18 10:13N 34°31' E 135°24'3 8.7
2018-Jun-18 09:51N 34°34' E 135°23'412.6
2018-Jun-18 09:30N 34°38' E 135°23'0 0.3
2018-Jun-18 08:59N 34°38' E 135°23'1 2.1
2018-Jun-18 08:30N 34°37' E 135°23'5 8.8
2018-Jun-18 07:59N 34°33' E 135°23'2 0.9
2018-Jun-18 05:26N 34°31' E 135°24'0 0.0
2018-Jun-18 04:56N 34°31' E 135°24'0 0.0
2018-Jun-18 03:44N 34°31' E 135°24'0 0.0
2018-Jun-18 03:26N 34°31' E 135°24'0 0.0
2018-Jun-18 02:56N 34°31' E 135°24'0 0.0
2018-Jun-18 02:26N 34°31' E 135°24'0 0.0
2018-Jun-18 01:56N 34°31' E 135°24'0 0.0
2018-Jun-18 00:31N 34°31' E 135°24'0 0.0
2018-Jun-18 00:28N 34°31' E 135°24'2 3.8
2018-Jun-17 23:59N 34°31' E 135°22'510.3
2018-Jun-17 23:30N 34°27' E 135°19'0 0.5
2018-Jun-17 22:58N 34°26' E 135°19'1 1.7
2018-Jun-17 22:28N 34°27' E 135°19'610.3
2018-Jun-17 21:55N 34°32' E 135°23'2 1.0
2018-Jun-17 20:24N 34°31' E 135°24'0 0.0
2018-Jun-17 19:47N 34°31' E 135°24'0 0.0
2018-Jun-17 18:41N 34°31' E 135°24'0 0.0
2018-Jun-17 18:24N 34°31' E 135°24'0 0.0
2018-Jun-17 17:05N 34°31' E 135°24'0 0.0
2018-Jun-17 16:54N 34°31' E 135°24'0 0.0
2018-Jun-16 22:53N 34°31' E 135°24'0 0.0
2018-Jun-15 16:53N 34°31' E 135°24'0 0.0
2018-Jun-15 15:59N 34°31' E 135°24'0 0.0
2018-Jun-15 15:23N 34°31' E 135°24'0 0.0
2018-Jun-15 14:53N 34°31' E 135°24'0 0.0
2018-Jun-15 14:29N 34°31' E 135°24'0 0.0
2018-Jun-15 13:05N 34°31' E 135°24'0 0.0
2018-Jun-15 12:41N 34°31' E 135°24'0 0.0
2018-Jun-15 02:53N 34°31' E 135°24'2 4.1
2018-Jun-15 02:25N 34°33' E 135°24'2 2.9
2018-Jun-15 01:34N 34°33' E 135°27'0 0.0
2018-Jun-15 01:28N 34°33' E 135°27'0 0.0
2018-Jun-15 00:52N 34°33' E 135°27'0 0.0
2018-Jun-15 00:28N 34°33' E 135°27'0 0.0
2018-Jun-14 23:58N 34°33' E 135°27'0 0.0
2018-Jun-14 23:29N 34°33' E 135°27'4 8.7
2018-Jun-14 23:00N 34°36' E 135°23'2 4.9
2018-Jun-14 22:30N 34°39' E 135°24'2 3.1
2018-Jun-14 21:59N 34°37' E 135°23'5 9.8
2018-Jun-14 21:30N 34°33' E 135°23'2 0.1
2018-Jun-14 06:38N 34°31' E 135°24'0 0.0
2018-Jun-14 06:11N 34°31' E 135°24'2 9.2
2018-Jun-14 06:00N 34°32' E 135°23'611.5
2018-Jun-14 05:30N 34°38' E 135°23'3 5.0
2018-Jun-14 05:00N 34°38' E 135°26'1 2.3
2018-Jun-14 04:30N 34°39' E 135°25'2 3.2
2018-Jun-14 04:00N 34°38' E 135°24'610.5
2018-Jun-14 03:28N 34°33' E 135°24'1 0.1
2018-Jun-13 22:45N 34°32' E 135°24'1 0.1
2018-Jun-13 10:07N 34°31' E 135°24'1 8.4
2018-Jun-13 09:59N 34°32' E 135°23'612.3
2018-Jun-13 09:30N 34°38' E 135°23'2 4.6
2018-Jun-13 08:59N 34°39' E 135°26'3 6.9
2018-Jun-13 08:29N 34°36' E 135°23'5 0.6
2018-Jun-12 22:57N 34°31' E 135°24'1 1.2
2018-Jun-12 22:25N 34°31' E 135°23'2 3.3
2018-Jun-12 21:55N 34°33' E 135°22'2 0.4
2018-Jun-12 16:35N 34°31' E 135°24'0 0.0
2018-Jun-12 16:17N 34°31' E 135°24'0 0.0
2018-Jun-12 15:47N 34°31' E 135°24'0 0.0
2018-Jun-12 15:23N 34°31' E 135°24'0 0.0
2018-Jun-12 12:19N 34°31' E 135°24'412.3
2018-Jun-12 11:58N 34°35' E 135°23'4 8.0
2018-Jun-12 11:30N 34°39' E 135°24'2 3.0
2018-Jun-12 11:00N 34°37' E 135°23'3 4.7
2018-Jun-12 10:28N 34°35' E 135°23'4 1.7
2018-Jun-12 07:58N 34°31' E 135°24'1 1.5
2018-Jun-12 07:29N 34°31' E 135°23'1 1.5
2018-Jun-12 06:42N 34°32' E 135°24'0 0.0
2018-Jun-12 06:31N 34°32' E 135°24'1 0.0
2018-Jun-11 01:54N 34°31' E 135°24'0 0.0
2018-Jun-11 01:18N 34°31' E 135°24'0 0.0
2018-Jun-11 01:00N 34°31' E 135°24'0 0.0
2018-Jun-10 23:54N 34°31' E 135°24'0 0.0
2018-Jun-10 22:00N 34°31' E 135°24'  
Track history (hours):
 
Tides and Currents Weather Stations Pressure Air Temp Water Temp Dewpoint Dewpoint Depression Visibility Wind Speed Wind Dir Waves Ship Positions

Sanuki Maru

Last reported at 2018-Jun-20 21:23 UTC. Time now 2018-Jun-21 04:49 UTC.
Position N 34°43' E 134°35'.

Length 36 m; draft 3.8 m.

Type: Tug. MMSI: 431100769.

Date/timePositionNaut miles runAvg speedWind from/ knotsBaromVisibWave heightAir tempDewpointWater temp
2018-Jun-20 21:23N 34°43' E 134°35'410.5
2018-Jun-20 20:58N 34°42' E 134°40'510.4
2018-Jun-20 20:30N 34°41' E 134°46'510.5
2018-Jun-20 20:01N 34°38' E 134°51'611.5
2018-Jun-20 19:30N 34°38' E 134°58'612.5
2018-Jun-20 19:00N 34°36' E 135°05'611.7
2018-Jun-20 18:30N 34°34' E 135°12'611.9
2018-Jun-20 18:00N 34°33' E 135°19'4 3.3
2018-Jun-20 16:41N 34°31' E 135°24'0 0.0
2018-Jun-20 16:29N 34°31' E 135°24'0 0.0
2018-Jun-20 14:53N 34°31' E 135°24'0 0.0
2018-Jun-20 12:35N 34°31' E 135°24'0 0.0
2018-Jun-20 12:29N 34°31' E 135°24'0 0.0
2018-Jun-19 23:51N 34°31' E 135°24'4 9.1
2018-Jun-19 23:23N 34°35' E 135°24'2 4.7
2018-Jun-19 22:58N 34°37' E 135°25'1 3.0
2018-Jun-19 22:30N 34°36' E 135°23'2 4.8
2018-Jun-19 22:00N 34°34' E 135°23'3 4.7
2018-Jun-19 21:19N 34°31' E 135°24'0 0.0
2018-Jun-19 20:49N 34°31' E 135°24'0 0.0
2018-Jun-19 20:01N 34°31' E 135°24'0 0.0
2018-Jun-19 19:37N 34°31' E 135°24'0 0.0
2018-Jun-19 13:37N 34°31' E 135°24'0 0.0
2018-Jun-19 13:25N 34°31' E 135°24'0 0.0
2018-Jun-19 12:55N 34°31' E 135°24'0 0.0
2018-Jun-19 12:19N 34°31' E 135°24'0 0.0
2018-Jun-19 11:55N 34°31' E 135°24'0 0.0
2018-Jun-19 10:49N 34°31' E 135°24'0 0.0
2018-Jun-19 10:07N 34°31' E 135°24'0 0.0
2018-Jun-19 09:43N 34°31' E 135°24'0 0.0
2018-Jun-19 07:55N 34°31' E 135°24'0 0.0
2018-Jun-19 07:30N 34°31' E 135°24'510.1
2018-Jun-19 06:59N 34°36' E 135°23'3 7.1
2018-Jun-19 06:30N 34°39' E 135°24'2 3.2
2018-Jun-19 06:00N 34°38' E 135°23'2 4.2
2018-Jun-19 05:31N 34°36' E 135°24'0 0.0
2018-Jun-19 05:00N 34°36' E 135°24'0 0.0
2018-Jun-19 04:31N 34°36' E 135°24'0 0.0
2018-Jun-19 04:01N 34°36' E 135°24'0 0.0
2018-Jun-19 03:30N 34°36' E 135°24'0 0.0
2018-Jun-19 02:59N 34°36' E 135°24'0 0.0
2018-Jun-19 02:30N 34°36' E 135°24'0 0.0
2018-Jun-19 02:00N 34°36' E 135°24'0 0.0
2018-Jun-19 01:28N 34°36' E 135°24'0 0.0
2018-Jun-19 00:55N 34°36' E 135°24'1 1.3
2018-Jun-19 00:29N 34°37' E 135°24'3 5.5
2018-Jun-19 00:00N 34°39' E 135°25'0 0.3
2018-Jun-18 23:29N 34°39' E 135°25'4 7.5
2018-Jun-18 23:00N 34°36' E 135°23'510.6
2018-Jun-18 22:30N 34°31' E 135°24'0 0.1
2018-Jun-18 21:20N 34°31' E 135°24'0 0.0
2018-Jun-18 20:56N 34°31' E 135°24'0 0.0
2018-Jun-18 20:20N 34°31' E 135°24'0 0.0
2018-Jun-18 19:56N 34°31' E 135°24'0 0.0
2018-Jun-18 19:27N 34°31' E 135°24'0 0.0
2018-Jun-18 18:57N 34°31' E 135°24'0 0.0
2018-Jun-18 17:27N 34°31' E 135°24'0 0.0
2018-Jun-18 14:50N 34°31' E 135°24'0 0.0
2018-Jun-18 14:20N 34°31' E 135°24'0 0.0
2018-Jun-18 13:56N 34°31' E 135°24'0 0.0
2018-Jun-18 13:26N 34°31' E 135°24'0 0.0
2018-Jun-18 12:50N 34°31' E 135°24'0 0.0
2018-Jun-18 12:14N 34°31' E 135°24'0 0.0
2018-Jun-18 11:50N 34°31' E 135°24'0 0.0
2018-Jun-18 11:08N 34°31' E 135°24'0 0.0
2018-Jun-18 10:56N 34°31' E 135°24'0 0.0
2018-Jun-18 10:13N 34°31' E 135°24'3 8.7
2018-Jun-18 09:51N 34°34' E 135°23'412.6
2018-Jun-18 09:30N 34°38' E 135°23'0 0.3
2018-Jun-18 08:59N 34°38' E 135°23'1 2.1
2018-Jun-18 08:30N 34°37' E 135°23'5 8.8
2018-Jun-18 07:59N 34°33' E 135°23'2 0.9
2018-Jun-18 05:26N 34°31' E 135°24'0 0.0
2018-Jun-18 04:56N 34°31' E 135°24'0 0.0
2018-Jun-18 03:44N 34°31' E 135°24'0 0.0
2018-Jun-18 03:26N 34°31' E 135°24'0 0.0
2018-Jun-18 02:56N 34°31' E 135°24'0 0.0
2018-Jun-18 02:26N 34°31' E 135°24'0 0.0
2018-Jun-18 01:56N 34°31' E 135°24'0 0.0
2018-Jun-18 00:31N 34°31' E 135°24'0 0.0
2018-Jun-18 00:28N 34°31' E 135°24'2 3.8
2018-Jun-17 23:59N 34°31' E 135°22'510.3
2018-Jun-17 23:30N 34°27' E 135°19'0 0.5
2018-Jun-17 22:58N 34°26' E 135°19'1 1.7
2018-Jun-17 22:28N 34°27' E 135°19'610.3
2018-Jun-17 21:55N 34°32' E 135°23'2 1.0
2018-Jun-17 20:24N 34°31' E 135°24'0 0.0
2018-Jun-17 19:47N 34°31' E 135°24'0 0.0
2018-Jun-17 18:41N 34°31' E 135°24'0 0.0
2018-Jun-17 18:24N 34°31' E 135°24'0 0.0
2018-Jun-17 17:05N 34°31' E 135°24'0 0.0
2018-Jun-17 16:54N 34°31' E 135°24'0 0.0
2018-Jun-16 22:53N 34°31' E 135°24'0 0.0
2018-Jun-15 16:53N 34°31' E 135°24'0 0.0
2018-Jun-15 15:59N 34°31' E 135°24'0 0.0
2018-Jun-15 15:23N 34°31' E 135°24'0 0.0
2018-Jun-15 14:53N 34°31' E 135°24'0 0.0
2018-Jun-15 14:29N 34°31' E 135°24'0 0.0
2018-Jun-15 13:05N 34°31' E 135°24'0 0.0
2018-Jun-15 12:41N 34°31' E 135°24'0 0.0
2018-Jun-15 02:53N 34°31' E 135°24'2 4.1
2018-Jun-15 02:25N 34°33' E 135°24'2 2.9
2018-Jun-15 01:34N 34°33' E 135°27'0 0.0
2018-Jun-15 01:28N 34°33' E 135°27'0 0.0
2018-Jun-15 00:52N 34°33' E 135°27'0 0.0
2018-Jun-15 00:28N 34°33' E 135°27'0 0.0
2018-Jun-14 23:58N 34°33' E 135°27'0 0.0
2018-Jun-14 23:29N 34°33' E 135°27'4 8.7
2018-Jun-14 23:00N 34°36' E 135°23'2 4.9
2018-Jun-14 22:30N 34°39' E 135°24'2 3.1
2018-Jun-14 21:59N 34°37' E 135°23'5 9.8
2018-Jun-14 21:30N 34°33' E 135°23'2 0.1
2018-Jun-14 06:38N 34°31' E 135°24'0 0.0
2018-Jun-14 06:11N 34°31' E 135°24'2 9.2
2018-Jun-14 06:00N 34°32' E 135°23'611.5
2018-Jun-14 05:30N 34°38' E 135°23'3 5.0
2018-Jun-14 05:00N 34°38' E 135°26'1 2.3
2018-Jun-14 04:30N 34°39' E 135°25'2 3.2
2018-Jun-14 04:00N 34°38' E 135°24'610.5
2018-Jun-14 03:28N 34°33' E 135°24'1 0.1
2018-Jun-13 22:45N 34°32' E 135°24'1 0.1
2018-Jun-13 10:07N 34°31' E 135°24'1 8.4
2018-Jun-13 09:59N 34°32' E 135°23'612.3
2018-Jun-13 09:30N 34°38' E 135°23'2 4.6
2018-Jun-13 08:59N 34°39' E 135°26'3 6.9
2018-Jun-13 08:29N 34°36' E 135°23'5 0.6
2018-Jun-12 22:57N 34°31' E 135°24'1 1.2
2018-Jun-12 22:25N 34°31' E 135°23'2 3.3
2018-Jun-12 21:55N 34°33' E 135°22'2 0.4
2018-Jun-12 16:35N 34°31' E 135°24'0 0.0
2018-Jun-12 16:17N 34°31' E 135°24'0 0.0
2018-Jun-12 15:47N 34°31' E 135°24'0 0.0
2018-Jun-12 15:23N 34°31' E 135°24'0 0.0
2018-Jun-12 12:19N 34°31' E 135°24'412.3
2018-Jun-12 11:58N 34°35' E 135°23'4 8.0
2018-Jun-12 11:30N 34°39' E 135°24'2 3.0
2018-Jun-12 11:00N 34°37' E 135°23'3 4.7
2018-Jun-12 10:28N 34°35' E 135°23'4 1.7
2018-Jun-12 07:58N 34°31' E 135°24'1 1.5
2018-Jun-12 07:29N 34°31' E 135°23'1 1.5
2018-Jun-12 06:42N 34°32' E 135°24'0 0.0
2018-Jun-12 06:31N 34°32' E 135°24'1 0.0
2018-Jun-11 01:54N 34°31' E 135°24'0 0.0
2018-Jun-11 01:18N 34°31' E 135°24'0 0.0
2018-Jun-11 01:00N 34°31' E 135°24'0 0.0
2018-Jun-10 23:54N 34°31' E 135°24'0 0.0
2018-Jun-10 22:00N 34°31' E 135°24'  

Dump ship's entire track history